sensor_id;sensor_type;location;lat;lon;timestamp;pressure;altitude;pressure_sealevel;temperature;humidity
3668;BME280;24099;47.102;15.440;2023-02-11T00:02:16;99033.88;;;-5.06;100.00
3668;BME280;24099;47.102;15.440;2023-02-11T00:04:43;99030.69;;;-5.15;100.00
3668;BME280;24099;47.102;15.440;2023-02-11T00:07:11;99026.31;;;-5.12;100.00
3668;BME280;24099;47.102;15.440;2023-02-11T00:09:39;99023.91;;;-5.18;100.00
3668;BME280;24099;47.102;15.440;2023-02-11T00:12:08;99028.13;;;-5.15;100.00
3668;BME280;24099;47.102;15.440;2023-02-11T00:14:35;99021.44;;;-5.21;100.00
3668;BME280;24099;47.102;15.440;2023-02-11T00:17:03;99021.09;;;-5.41;100.00
3668;BME280;24099;47.102;15.440;2023-02-11T00:19:31;99021.16;;;-5.44;100.00
3668;BME280;24099;47.102;15.440;2023-02-11T00:21:58;99020.91;;;-5.35;100.00
3668;BME280;24099;47.102;15.440;2023-02-11T00:24:26;99019.97;;;-5.31;100.00
3668;BME280;24099;47.102;15.440;2023-02-11T00:26:55;99015.66;;;-5.29;100.00
3668;BME280;24099;47.102;15.440;2023-02-11T00:29:24;99018.41;;;-5.37;100.00
3668;BME280;24099;47.102;15.440;2023-02-11T00:31:52;99014.97;;;-5.37;100.00
3668;BME280;24099;47.102;15.440;2023-02-11T00:34:20;99011.50;;;-5.35;100.00
3668;BME280;24099;47.102;15.440;2023-02-11T00:36:47;99012.09;;;-5.24;100.00
3668;BME280;24099;47.102;15.440;2023-02-11T00:39:17;99013.94;;;-5.29;100.00
3668;BME280;24099;47.102;15.440;2023-02-11T00:41:44;99013.97;;;-5.30;100.00
3668;BME280;24099;47.102;15.440;2023-02-11T00:44:12;99011.91;;;-5.17;100.00
3668;BME280;24099;47.102;15.440;2023-02-11T00:46:41;99011.31;;;-5.27;100.00
3668;BME280;24099;47.102;15.440;2023-02-11T00:49:10;99004.75;;;-5.39;100.00
3668;BME280;24099;47.102;15.440;2023-02-11T00:51:38;98998.69;;;-5.35;100.00
3668;BME280;24099;47.102;15.440;2023-02-11T00:54:06;99003.72;;;-5.32;100.00
3668;BME280;24099;47.102;15.440;2023-02-11T00:56:34;99001.34;;;-5.39;100.00
3668;BME280;24099;47.102;15.440;2023-02-11T00:59:03;99002.41;;;-5.46;100.00
3668;BME280;24099;47.102;15.440;2023-02-11T01:01:30;98998.56;;;-5.30;100.00
3668;BME280;24099;47.102;15.440;2023-02-11T01:04:00;98995.19;;;-5.32;100.00
3668;BME280;24099;47.102;15.440;2023-02-11T01:06:27;98986.28;;;-5.51;100.00
3668;BME280;24099;47.102;15.440;2023-02-11T01:08:56;98987.09;;;-5.49;100.00
3668;BME280;24099;47.102;15.440;2023-02-11T01:11:24;98977.78;;;-5.53;100.00
3668;BME280;24099;47.102;15.440;2023-02-11T01:13:52;98976.97;;;-5.56;100.00
3668;BME280;24099;47.102;15.440;2023-02-11T01:16:21;98974.88;;;-5.40;100.00
3668;BME280;24099;47.102;15.440;2023-02-11T01:18:51;98969.53;;;-5.32;100.00
3668;BME280;24099;47.102;15.440;2023-02-11T01:21:20;98963.72;;;-5.39;100.00
3668;BME280;24099;47.102;15.440;2023-02-11T01:23:50;98954.47;;;-5.44;100.00
3668;BME280;24099;47.102;15.440;2023-02-11T01:26:18;98956.66;;;-5.31;100.00
3668;BME280;24099;47.102;15.440;2023-02-11T01:28:47;98951.09;;;-5.46;100.00
3668;BME280;24099;47.102;15.440;2023-02-11T01:31:14;98943.63;;;-5.56;100.00
3668;BME280;24099;47.102;15.440;2023-02-11T01:33:42;98948.50;;;-5.45;100.00
3668;BME280;24099;47.102;15.440;2023-02-11T01:36:11;98943.56;;;-5.52;100.00
3668;BME280;24099;47.102;15.440;2023-02-11T01:38:41;98941.13;;;-5.59;100.00
3668;BME280;24099;47.102;15.440;2023-02-11T01:41:12;98936.22;;;-5.34;100.00
3668;BME280;24099;47.102;15.440;2023-02-11T01:43:44;98939.88;;;-5.42;100.00
3668;BME280;24099;47.102;15.440;2023-02-11T01:46:30;98919.56;;;-5.50;100.00
3668;BME280;24099;47.102;15.440;2023-02-11T01:49:02;98925.38;;;-5.43;100.00
3668;BME280;24099;47.102;15.440;2023-02-11T01:51:35;98926.91;;;-5.38;100.00
3668;BME280;24099;47.102;15.440;2023-02-11T01:54:08;98916.75;;;-5.41;100.00
3668;BME280;24099;47.102;15.440;2023-02-11T01:56:58;98919.38;;;-5.42;100.00
3668;BME280;24099;47.102;15.440;2023-02-11T01:59:47;98921.19;;;-5.47;100.00
3668;BME280;24099;47.102;15.440;2023-02-11T02:02:20;98912.50;;;-5.42;100.00
3668;BME280;24099;47.102;15.440;2023-02-11T02:04:54;98921.31;;;-5.52;100.00
3668;BME280;24099;47.102;15.440;2023-02-11T02:07:31;98914.63;;;-5.58;100.00
3668;BME280;24099;47.102;15.440;2023-02-11T02:10:05;98909.91;;;-5.40;100.00
3668;BME280;24099;47.102;15.440;2023-02-11T02:12:35;98911.75;;;-5.45;100.00
3668;BME280;24099;47.102;15.440;2023-02-11T02:15:22;98915.03;;;-5.40;100.00
3668;BME280;24099;47.102;15.440;2023-02-11T02:17:58;98914.28;;;-5.44;100.00
3668;BME280;24099;47.102;15.440;2023-02-11T02:23:49;98910.75;;;-5.40;100.00
3668;BME280;24099;47.102;15.440;2023-02-11T02:26:49;98903.47;;;-5.57;100.00
3668;BME280;24099;47.102;15.440;2023-02-11T02:29:45;98896.84;;;-5.64;100.00
3668;BME280;24099;47.102;15.440;2023-02-11T02:35:27;98897.81;;;-5.69;100.00
3668;BME280;24099;47.102;15.440;2023-02-11T02:38:00;98890.25;;;-5.74;100.00
3668;BME280;24099;47.102;15.440;2023-02-11T02:40:35;98892.66;;;-5.68;100.00
3668;BME280;24099;47.102;15.440;2023-02-11T02:43:07;98891.81;;;-5.68;100.00
3668;BME280;24099;47.102;15.440;2023-02-11T02:45:36;98893.72;;;-5.76;100.00
3668;BME280;24099;47.102;15.440;2023-02-11T02:48:06;98893.66;;;-5.73;100.00
3668;BME280;24099;47.102;15.440;2023-02-11T02:50:35;98883.25;;;-5.67;100.00
3668;BME280;24099;47.102;15.440;2023-02-11T02:53:16;98876.06;;;-5.87;100.00
3668;BME280;24099;47.102;15.440;2023-02-11T02:55:58;98883.75;;;-5.87;100.00
3668;BME280;24099;47.102;15.440;2023-02-11T02:58:46;98877.66;;;-5.81;100.00
3668;BME280;24099;47.102;15.440;2023-02-11T03:01:28;98883.28;;;-5.69;100.00
3668;BME280;24099;47.102;15.440;2023-02-11T03:04:00;98878.53;;;-5.82;100.00
3668;BME280;24099;47.102;15.440;2023-02-11T03:06:33;98875.09;;;-5.81;100.00
3668;BME280;24099;47.102;15.440;2023-02-11T03:09:07;98882.72;;;-5.80;100.00
3668;BME280;24099;47.102;15.440;2023-02-11T03:11:39;98874.34;;;-5.86;100.00
3668;BME280;24099;47.102;15.440;2023-02-11T03:14:11;98873.81;;;-5.99;100.00
3668;BME280;24099;47.102;15.440;2023-02-11T03:16:43;98877.09;;;-5.93;100.00
3668;BME280;24099;47.102;15.440;2023-02-11T03:19:16;98878.75;;;-5.90;100.00
3668;BME280;24099;47.102;15.440;2023-02-11T03:21:49;98868.63;;;-5.96;100.00
3668;BME280;24099;47.102;15.440;2023-02-11T03:24:23;98867.09;;;-6.02;100.00
3668;BME280;24099;47.102;15.440;2023-02-11T03:26:53;98870.50;;;-6.01;100.00
3668;BME280;24099;47.102;15.440;2023-02-11T03:29:32;98872.88;;;-5.95;100.00
3668;BME280;24099;47.102;15.440;2023-02-11T03:32:05;98872.16;;;-6.00;100.00
3668;BME280;24099;47.102;15.440;2023-02-11T03:34:43;98858.81;;;-6.13;100.00
3668;BME280;24099;47.102;15.440;2023-02-11T03:37:15;98853.72;;;-6.14;100.00
3668;BME280;24099;47.102;15.440;2023-02-11T03:39:49;98866.34;;;-6.07;100.00
3668;BME280;24099;47.102;15.440;2023-02-11T03:42:19;98860.06;;;-5.95;100.00
3668;BME280;24099;47.102;15.440;2023-02-11T03:44:52;98861.00;;;-5.99;100.00
3668;BME280;24099;47.102;15.440;2023-02-11T03:47:26;98851.78;;;-6.05;100.00
3668;BME280;24099;47.102;15.440;2023-02-11T03:49:57;98856.00;;;-6.02;100.00
3668;BME280;24099;47.102;15.440;2023-02-11T03:52:29;98849.16;;;-6.02;100.00
3668;BME280;24099;47.102;15.440;2023-02-11T03:55:00;98844.16;;;-6.08;100.00
3668;BME280;24099;47.102;15.440;2023-02-11T03:57:30;98842.66;;;-6.16;100.00
3668;BME280;24099;47.102;15.440;2023-02-11T03:59:59;98843.34;;;-6.10;100.00
3668;BME280;24099;47.102;15.440;2023-02-11T04:02:38;98842.75;;;-6.19;100.00
3668;BME280;24099;47.102;15.440;2023-02-11T04:05:09;98841.22;;;-6.27;100.00
3668;BME280;24099;47.102;15.440;2023-02-11T04:07:37;98844.47;;;-6.20;100.00
3668;BME280;24099;47.102;15.440;2023-02-11T04:10:05;98844.53;;;-6.23;100.00
3668;BME280;24099;47.102;15.440;2023-02-11T04:12:33;98843.81;;;-6.28;100.00
3668;BME280;24099;47.102;15.440;2023-02-11T04:15:02;98845.31;;;-6.19;100.00
3668;BME280;24099;47.102;15.440;2023-02-11T04:17:30;98836.66;;;-6.15;100.00
3668;BME280;24099;47.102;15.440;2023-02-11T04:19:59;98842.56;;;-6.12;100.00
3668;BME280;24099;47.102;15.440;2023-02-11T04:22:29;98835.16;;;-6.22;100.00
3668;BME280;24099;47.102;15.440;2023-02-11T04:24:57;98831.69;;;-6.21;100.00
3668;BME280;24099;47.102;15.440;2023-02-11T04:27:27;98826.97;;;-6.38;100.00
3668;BME280;24099;47.102;15.440;2023-02-11T04:29:55;98827.94;;;-6.42;100.00
3668;BME280;24099;47.102;15.440;2023-02-11T04:32:23;98824.47;;;-6.40;100.00
3668;BME280;24099;47.102;15.440;2023-02-11T04:34:50;98821.59;;;-6.28;100.00
3668;BME280;24099;47.102;15.440;2023-02-11T04:37:19;98822.56;;;-6.33;100.00
3668;BME280;24099;47.102;15.440;2023-02-11T04:39:48;98826.75;;;-6.29;100.00
3668;BME280;24099;47.102;15.440;2023-02-11T04:42:16;98821.47;;;-6.21;100.00
3668;BME280;24099;47.102;15.440;2023-02-11T04:44:44;98817.66;;;-6.41;100.00
3668;BME280;24099;47.102;15.440;2023-02-11T04:47:13;98812.31;;;-6.32;100.00
3668;BME280;24099;47.102;15.440;2023-02-11T04:49:40;98810.63;;;-6.33;100.00
3668;BME280;24099;47.102;15.440;2023-02-11T04:52:08;98803.63;;;-6.26;100.00
3668;BME280;24099;47.102;15.440;2023-02-11T04:54:38;98808.19;;;-6.39;100.00
3668;BME280;24099;47.102;15.440;2023-02-11T04:57:07;98802.84;;;-6.30;100.00
3668;BME280;24099;47.102;15.440;2023-02-11T04:59:35;98800.41;;;-6.34;100.00
3668;BME280;24099;47.102;15.440;2023-02-11T05:02:03;98793.47;;;-6.29;100.00
3668;BME280;24099;47.102;15.440;2023-02-11T05:04:30;98795.22;;;-6.31;100.00
3668;BME280;24099;47.102;15.440;2023-02-11T05:06:58;98792.25;;;-6.50;100.00
3668;BME280;24099;47.102;15.440;2023-02-11T05:09:32;98794.81;;;-6.50;100.00
3668;BME280;24099;47.102;15.440;2023-02-11T05:12:00;98791.50;;;-6.53;100.00
3668;BME280;24099;47.102;15.440;2023-02-11T05:14:30;98793.94;;;-6.49;100.00
3668;BME280;24099;47.102;15.440;2023-02-11T05:16:58;98799.06;;;-6.49;100.00
3668;BME280;24099;47.102;15.440;2023-02-11T05:19:27;98801.19;;;-6.31;100.00
3668;BME280;24099;47.102;15.440;2023-02-11T05:21:56;98796.38;;;-6.43;100.00
3668;BME280;24099;47.102;15.440;2023-02-11T05:24:26;98794.63;;;-6.41;100.00
3668;BME280;24099;47.102;15.440;2023-02-11T05:26:55;98795.25;;;-6.33;100.00
3668;BME280;24099;47.102;15.440;2023-02-11T05:29:25;98797.66;;;-6.27;100.00
3668;BME280;24099;47.102;15.440;2023-02-11T05:31:54;98792.66;;;-6.31;100.00
3668;BME280;24099;47.102;15.440;2023-02-11T05:34:21;98795.00;;;-6.22;100.00
3668;BME280;24099;47.102;15.440;2023-02-11T05:36:49;98795.28;;;-6.34;100.00
3668;BME280;24099;47.102;15.440;2023-02-11T05:39:19;98792.63;;;-6.30;100.00
3668;BME280;24099;47.102;15.440;2023-02-11T05:41:47;98796.06;;;-6.31;100.00
3668;BME280;24099;47.102;15.440;2023-02-11T05:44:14;98797.59;;;-6.23;100.00
3668;BME280;24099;47.102;15.440;2023-02-11T05:46:42;98795.13;;;-6.28;100.00
3668;BME280;24099;47.102;15.440;2023-02-11T05:49:11;98790.72;;;-6.21;100.00
3668;BME280;24099;47.102;15.440;2023-02-11T05:51:42;98795.03;;;-6.23;100.00
3668;BME280;24099;47.102;15.440;2023-02-11T05:54:10;98784.84;;;-6.27;100.00
3668;BME280;24099;47.102;15.440;2023-02-11T05:56:38;98785.44;;;-6.17;100.00
3668;BME280;24099;47.102;15.440;2023-02-11T05:59:08;98782.25;;;-6.25;100.00
3668;BME280;24099;47.102;15.440;2023-02-11T06:01:38;98782.94;;;-6.18;100.00
3668;BME280;24099;47.102;15.440;2023-02-11T06:04:06;98789.69;;;-6.16;100.00
3668;BME280;24099;47.102;15.440;2023-02-11T06:06:35;98784.09;;;-6.30;100.00
3668;BME280;24099;47.102;15.440;2023-02-11T06:09:04;98787.56;;;-6.33;100.00
3668;BME280;24099;47.102;15.440;2023-02-11T06:11:34;98784.19;;;-6.35;100.00
3668;BME280;24099;47.102;15.440;2023-02-11T06:14:01;98776.28;;;-6.26;100.00
3668;BME280;24099;47.102;15.440;2023-02-11T06:16:31;98768.47;;;-6.19;100.00
3668;BME280;24099;47.102;15.440;2023-02-11T06:18:59;98773.59;;;-6.19;100.00
3668;BME280;24099;47.102;15.440;2023-02-11T06:21:27;98773.34;;;-6.10;100.00
3668;BME280;24099;47.102;15.440;2023-02-11T06:23:56;98766.13;;;-6.29;100.00
3668;BME280;24099;47.102;15.440;2023-02-11T06:26:25;98770.88;;;-6.15;100.00
3668;BME280;24099;47.102;15.440;2023-02-11T06:28:53;98774.53;;;-6.23;100.00
3668;BME280;24099;47.102;15.440;2023-02-11T06:31:21;98767.25;;;-6.06;100.00
3668;BME280;24099;47.102;15.440;2023-02-11T06:33:49;98777.22;;;-5.96;100.00
3668;BME280;24099;47.102;15.440;2023-02-11T06:36:19;98765.91;;;-5.88;100.00
3668;BME280;24099;47.102;15.440;2023-02-11T06:38:48;98764.81;;;-5.80;100.00
3668;BME280;24099;47.102;15.440;2023-02-11T06:41:18;98758.78;;;-5.79;100.00
3668;BME280;24099;47.102;15.440;2023-02-11T06:43:47;98762.78;;;-5.69;100.00
3668;BME280;24099;47.102;15.440;2023-02-11T06:46:18;98758.81;;;-5.49;100.00
3668;BME280;24099;47.102;15.440;2023-02-11T06:48:45;98778.69;;;-5.58;100.00
3668;BME280;24099;47.102;15.440;2023-02-11T06:51:15;98769.06;;;-5.49;100.00
3668;BME280;24099;47.102;15.440;2023-02-11T06:53:44;98762.56;;;-5.32;100.00
3668;BME280;24099;47.102;15.440;2023-02-11T06:56:17;98762.44;;;-5.27;100.00
3668;BME280;24099;47.102;15.440;2023-02-11T06:58:46;98760.34;;;-5.14;100.00
3668;BME280;24099;47.102;15.440;2023-02-11T07:01:15;98762.59;;;-5.04;100.00
3668;BME280;24099;47.102;15.440;2023-02-11T07:03:45;98751.50;;;-5.04;100.00
3668;BME280;24099;47.102;15.440;2023-02-11T07:06:16;98753.84;;;-4.98;100.00
3668;BME280;24099;47.102;15.440;2023-02-11T07:08:45;98748.16;;;-4.80;100.00
3668;BME280;24099;47.102;15.440;2023-02-11T07:11:17;98757.44;;;-4.76;100.00
3668;BME280;24099;47.102;15.440;2023-02-11T07:13:46;98750.66;;;-4.78;100.00
3668;BME280;24099;47.102;15.440;2023-02-11T07:16:17;98747.19;;;-4.77;100.00
3668;BME280;24099;47.102;15.440;2023-02-11T07:18:45;98752.09;;;-4.70;100.00
3668;BME280;24099;47.102;15.440;2023-02-11T07:21:16;98758.28;;;-4.75;100.00
3668;BME280;24099;47.102;15.440;2023-02-11T07:23:44;98755.50;;;-4.69;100.00
3668;BME280;24099;47.102;15.440;2023-02-11T07:26:15;98754.53;;;-4.65;100.00
3668;BME280;24099;47.102;15.440;2023-02-11T07:28:55;98748.50;;;-4.64;100.00
3668;BME280;24099;47.102;15.440;2023-02-11T07:31:25;98741.47;;;-4.59;100.00
3668;BME280;24099;47.102;15.440;2023-02-11T07:33:54;98746.44;;;-4.53;100.00
3668;BME280;24099;47.102;15.440;2023-02-11T07:36:22;98758.19;;;-4.46;100.00
3668;BME280;24099;47.102;15.440;2023-02-11T07:38:52;98754.28;;;-4.31;100.00
3668;BME280;24099;47.102;15.440;2023-02-11T07:41:22;98750.34;;;-4.41;100.00
3668;BME280;24099;47.102;15.440;2023-02-11T07:43:50;98751.19;;;-4.41;100.00
3668;BME280;24099;47.102;15.440;2023-02-11T07:46:21;98749.88;;;-4.28;100.00
3668;BME280;24099;47.102;15.440;2023-02-11T07:48:49;98745.25;;;-4.18;100.00
3668;BME280;24099;47.102;15.440;2023-02-11T07:51:19;98741.59;;;-4.11;100.00
3668;BME280;24099;47.102;15.440;2023-02-11T07:53:47;98745.69;;;-4.05;100.00
3668;BME280;24099;47.102;15.440;2023-02-11T07:56:17;98744.75;;;-4.03;100.00
3668;BME280;24099;47.102;15.440;2023-02-11T07:58:45;98734.28;;;-3.98;100.00
3668;BME280;24099;47.102;15.440;2023-02-11T08:01:15;98732.13;;;-3.86;100.00
3668;BME280;24099;47.102;15.440;2023-02-11T08:03:45;98732.91;;;-3.84;100.00
3668;BME280;24099;47.102;15.440;2023-02-11T08:06:21;98732.88;;;-3.82;100.00
3668;BME280;24099;47.102;15.440;2023-02-11T08:08:49;98732.25;;;-3.65;100.00
3668;BME280;24099;47.102;15.440;2023-02-11T08:11:19;98736.72;;;-3.47;100.00
3668;BME280;24099;47.102;15.440;2023-02-11T08:13:47;98735.53;;;-3.38;100.00
3668;BME280;24099;47.102;15.440;2023-02-11T08:16:19;98733.75;;;-3.36;100.00
3668;BME280;24099;47.102;15.440;2023-02-11T08:18:49;98733.78;;;-3.15;100.00
3668;BME280;24099;47.102;15.440;2023-02-11T08:21:18;98740.53;;;-3.12;100.00
3668;BME280;24099;47.102;15.440;2023-02-11T08:23:46;98733.31;;;-3.02;100.00
3668;BME280;24099;47.102;15.440;2023-02-11T08:26:17;98728.94;;;-3.00;100.00
3668;BME280;24099;47.102;15.440;2023-02-11T08:28:48;98716.47;;;-2.89;100.00
3668;BME280;24099;47.102;15.440;2023-02-11T08:31:17;98724.19;;;-2.67;100.00
3668;BME280;24099;47.102;15.440;2023-02-11T08:33:46;98723.25;;;-2.45;100.00
3668;BME280;24099;47.102;15.440;2023-02-11T08:36:16;98712.53;;;-1.95;100.00
3668;BME280;24099;47.102;15.440;2023-02-11T08:38:44;98702.44;;;-1.60;100.00
3668;BME280;24099;47.102;15.440;2023-02-11T08:41:13;98704.06;;;-1.59;100.00
3668;BME280;24099;47.102;15.440;2023-02-11T08:43:41;98709.78;;;-1.15;100.00
3668;BME280;24099;47.102;15.440;2023-02-11T08:46:10;98697.97;;;-0.31;100.00
3668;BME280;24099;47.102;15.440;2023-02-11T08:48:39;98685.03;;;-0.31;100.00
3668;BME280;24099;47.102;15.440;2023-02-11T08:51:08;98688.75;;;-0.20;100.00
3668;BME280;24099;47.102;15.440;2023-02-11T08:53:37;98686.78;;;-0.15;100.00
3668;BME280;24099;47.102;15.440;2023-02-11T08:56:05;98679.91;;;0.02;100.00
3668;BME280;24099;47.102;15.440;2023-02-11T08:58:44;98680.59;;;0.54;100.00
3668;BME280;24099;47.102;15.440;2023-02-11T09:01:13;98681.75;;;0.64;100.00
3668;BME280;24099;47.102;15.440;2023-02-11T09:03:41;98681.94;;;0.92;100.00
3668;BME280;24099;47.102;15.440;2023-02-11T09:06:10;98680.50;;;0.87;100.00
3668;BME280;24099;47.102;15.440;2023-02-11T09:08:43;98671.25;;;0.98;100.00
3668;BME280;24099;47.102;15.440;2023-02-11T09:11:11;98666.16;;;1.27;100.00
3668;BME280;24099;47.102;15.440;2023-02-11T09:13:40;98669.22;;;0.88;100.00
3668;BME280;24099;47.102;15.440;2023-02-11T09:16:13;98672.72;;;0.87;100.00
3668;BME280;24099;47.102;15.440;2023-02-11T09:18:44;98672.50;;;1.37;100.00
3668;BME280;24099;47.102;15.440;2023-02-11T09:21:20;98671.16;;;1.30;100.00
3668;BME280;24099;47.102;15.440;2023-02-11T09:23:55;98662.28;;;1.64;100.00
3668;BME280;24099;47.102;15.440;2023-02-11T09:26:26;98665.03;;;2.19;100.00
3668;BME280;24099;47.102;15.440;2023-02-11T09:28:54;98659.09;;;2.31;99.01
3668;BME280;24099;47.102;15.440;2023-02-11T09:31:23;98657.88;;;2.92;94.38
3668;BME280;24099;47.102;15.440;2023-02-11T09:33:53;98649.47;;;2.74;94.23
3668;BME280;24099;47.102;15.440;2023-02-11T09:36:23;98647.34;;;3.21;92.16
3668;BME280;24099;47.102;15.440;2023-02-11T09:38:56;98637.34;;;2.88;90.35
3668;BME280;24099;47.102;15.440;2023-02-11T09:41:53;98647.19;;;2.56;90.70
3668;BME280;24099;47.102;15.440;2023-02-11T09:44:27;98640.03;;;2.59;90.71
3668;BME280;24099;47.102;15.440;2023-02-11T09:46:58;98639.31;;;2.84;90.95
3668;BME280;24099;47.102;15.440;2023-02-11T09:49:33;98628.13;;;2.69;91.03
3668;BME280;24099;47.102;15.440;2023-02-11T09:52:04;98624.97;;;2.64;89.56
3668;BME280;24099;47.102;15.440;2023-02-11T09:54:39;98629.31;;;3.05;93.18
3668;BME280;24099;47.102;15.440;2023-02-11T09:57:13;98628.34;;;3.33;91.62
3668;BME280;24099;47.102;15.440;2023-02-11T09:59:40;98619.72;;;3.32;92.51
3668;BME280;24099;47.102;15.440;2023-02-11T10:02:13;98610.38;;;3.55;89.73
3668;BME280;24099;47.102;15.440;2023-02-11T10:05:06;98596.22;;;3.85;89.58
3668;BME280;24099;47.102;15.440;2023-02-11T10:07:44;98609.16;;;3.99;88.58
3668;BME280;24099;47.102;15.440;2023-02-11T10:10:33;98604.78;;;3.99;88.72
3668;BME280;24099;47.102;15.440;2023-02-11T10:13:22;98604.84;;;3.60;88.61
3668;BME280;24099;47.102;15.440;2023-02-11T10:15:56;98606.84;;;3.69;90.65
3668;BME280;24099;47.102;15.440;2023-02-11T10:18:45;98602.16;;;3.99;88.08
3668;BME280;24099;47.102;15.440;2023-02-11T10:21:22;98597.91;;;4.47;86.24
3668;BME280;24099;47.102;15.440;2023-02-11T10:23:54;98592.78;;;4.46;85.89
3668;BME280;24099;47.102;15.440;2023-02-11T10:26:28;98596.31;;;4.45;87.26
3668;BME280;24099;47.102;15.440;2023-02-11T10:29:01;98589.16;;;4.72;85.86
3668;BME280;24099;47.102;15.440;2023-02-11T10:31:36;98581.16;;;5.10;84.71
3668;BME280;24099;47.102;15.440;2023-02-11T10:34:08;98571.78;;;5.08;82.77
3668;BME280;24099;47.102;15.440;2023-02-11T10:36:38;98561.38;;;5.19;84.33
3668;BME280;24099;47.102;15.440;2023-02-11T10:39:11;98570.63;;;5.23;84.89
3668;BME280;24099;47.102;15.440;2023-02-11T10:41:44;98557.38;;;5.95;81.04
3668;BME280;24099;47.102;15.440;2023-02-11T10:44:25;98558.47;;;5.35;81.48
3668;BME280;24099;47.102;15.440;2023-02-11T10:46:55;98550.91;;;5.87;79.86
3668;BME280;24099;47.102;15.440;2023-02-11T10:49:37;98558.03;;;5.85;79.43
3668;BME280;24099;47.102;15.440;2023-02-11T10:52:20;98547.00;;;6.27;76.97
3668;BME280;24099;47.102;15.440;2023-02-11T10:54:56;98547.09;;;6.47;73.26
3668;BME280;24099;47.102;15.440;2023-02-11T10:57:30;98543.41;;;6.93;73.86
3668;BME280;24099;47.102;15.440;2023-02-11T10:59:59;98542.06;;;6.99;71.57
3668;BME280;24099;47.102;15.440;2023-02-11T11:02:30;98529.56;;;6.70;70.70
3668;BME280;24099;47.102;15.440;2023-02-11T11:05:03;98534.09;;;6.68;71.21
3668;BME280;24099;47.102;15.440;2023-02-11T11:07:33;98524.75;;;7.07;68.86
3668;BME280;24099;47.102;15.440;2023-02-11T11:10:05;98536.91;;;7.29;67.81
3668;BME280;24099;47.102;15.440;2023-02-11T11:12:45;98532.28;;;7.01;68.51
3668;BME280;24099;47.102;15.440;2023-02-11T11:15:18;98525.53;;;6.66;68.94
3668;BME280;24099;47.102;15.440;2023-02-11T11:17:47;98520.16;;;7.00;66.94
3668;BME280;24099;47.102;15.440;2023-02-11T11:20:23;98516.94;;;6.75;66.68
3668;BME280;24099;47.102;15.440;2023-02-11T11:23:06;98515.91;;;6.99;64.22
3668;BME280;24099;47.102;15.440;2023-02-11T11:25:41;98506.00;;;6.70;65.71
3668;BME280;24099;47.102;15.440;2023-02-11T11:28:22;98502.09;;;6.65;66.48
3668;BME280;24099;47.102;15.440;2023-02-11T11:30:52;98499.00;;;6.28;68.35
3668;BME280;24099;47.102;15.440;2023-02-11T11:33:23;98498.09;;;6.17;68.59
3668;BME280;24099;47.102;15.440;2023-02-11T11:36:01;98499.13;;;6.37;68.63
3668;BME280;24099;47.102;15.440;2023-02-11T11:38:30;98489.56;;;5.93;68.31
3668;BME280;24099;47.102;15.440;2023-02-11T11:41:19;98479.19;;;6.57;67.78
3668;BME280;24099;47.102;15.440;2023-02-11T11:44:00;98477.44;;;6.46;68.84
3668;BME280;24099;47.102;15.440;2023-02-11T11:46:31;98486.78;;;6.92;67.87
3668;BME280;24099;47.102;15.440;2023-02-11T11:49:21;98478.16;;;7.22;67.04
3668;BME280;24099;47.102;15.440;2023-02-11T11:52:00;98479.94;;;7.01;66.86
3668;BME280;24099;47.102;15.440;2023-02-11T11:54:33;98487.50;;;6.83;67.19
3668;BME280;24099;47.102;15.440;2023-02-11T11:57:10;98472.75;;;7.44;64.59
3668;BME280;24099;47.102;15.440;2023-02-11T11:59:43;98462.78;;;7.59;64.77
3668;BME280;24099;47.102;15.440;2023-02-11T12:05:10;98454.06;;;7.89;60.47
3668;BME280;24099;47.102;15.440;2023-02-11T12:07:52;98460.91;;;7.80;61.24
3668;BME280;24099;47.102;15.440;2023-02-11T12:10:34;98450.88;;;7.04;61.73
3668;BME280;24099;47.102;15.440;2023-02-11T12:13:13;98446.97;;;7.80;59.04
3668;BME280;24099;47.102;15.440;2023-02-11T12:15:52;98429.56;;;8.09;57.64
3668;BME280;24099;47.102;15.440;2023-02-11T12:18:34;98422.88;;;8.36;57.98
3668;BME280;24099;47.102;15.440;2023-02-11T12:21:11;98423.56;;;8.38;61.17
3668;BME280;24099;47.102;15.440;2023-02-11T12:23:54;98413.91;;;8.57;59.78
3668;BME280;24099;47.102;15.440;2023-02-11T12:26:30;98411.66;;;8.72;60.90
3668;BME280;24099;47.102;15.440;2023-02-11T12:29:19;98413.81;;;9.06;60.99
3668;BME280;24099;47.102;15.440;2023-02-11T12:32:03;98410.38;;;9.05;59.78
3668;BME280;24099;47.102;15.440;2023-02-11T12:35:03;98399.53;;;8.52;60.89
3668;BME280;24099;47.102;15.440;2023-02-11T12:37:51;98393.41;;;8.22;63.49
3668;BME280;24099;47.102;15.440;2023-02-11T12:40:29;98387.38;;;8.51;62.78
3668;BME280;24099;47.102;15.440;2023-02-11T12:43:08;98400.34;;;8.62;62.57
3668;BME280;24099;47.102;15.440;2023-02-11T12:46:00;98397.72;;;8.43;62.00
3668;BME280;24099;47.102;15.440;2023-02-11T12:48:45;98388.16;;;8.90;62.01
3668;BME280;24099;47.102;15.440;2023-02-11T12:51:23;98376.63;;;9.47;60.13
3668;BME280;24099;47.102;15.440;2023-02-11T12:54:14;98369.94;;;8.79;59.65
3668;BME280;24099;47.102;15.440;2023-02-11T12:56:50;98368.03;;;8.33;60.82
3668;BME280;24099;47.102;15.440;2023-02-11T12:59:38;98367.22;;;8.51;58.73
3668;BME280;24099;47.102;15.440;2023-02-11T13:02:20;98366.50;;;8.40;60.42
3668;BME280;24099;47.102;15.440;2023-02-11T13:04:54;98360.41;;;9.24;59.13
3668;BME280;24099;47.102;15.440;2023-02-11T13:07:28;98348.69;;;9.46;57.88
3668;BME280;24099;47.102;15.440;2023-02-11T13:10:04;98341.81;;;9.90;55.24
3668;BME280;24099;47.102;15.440;2023-02-11T13:12:36;98340.84;;;9.64;54.87
3668;BME280;24099;47.102;15.440;2023-02-11T13:15:21;98333.75;;;9.74;54.95
3668;BME280;24099;47.102;15.440;2023-02-11T13:17:55;98332.16;;;9.81;53.22
3668;BME280;24099;47.102;15.440;2023-02-11T13:20:34;98324.75;;;10.12;52.36
3668;BME280;24099;47.102;15.440;2023-02-11T13:23:15;98330.84;;;10.13;52.83
3668;BME280;24099;47.102;15.440;2023-02-11T13:25:52;98324.97;;;9.83;52.92
3668;BME280;24099;47.102;15.440;2023-02-11T13:28:32;98325.88;;;9.92;51.60
3668;BME280;24099;47.102;15.440;2023-02-11T13:31:01;98319.06;;;9.54;51.77
3668;BME280;24099;47.102;15.440;2023-02-11T13:33:34;98321.38;;;10.02;51.78
3668;BME280;24099;47.102;15.440;2023-02-11T13:36:18;98327.91;;;9.98;51.48